Terminal Aerodrome Forecast
Issued by NWS

Home | Current Version | Previous Version | Text Only | Print | Product List | Glossary On
Versions: 1 2 3 4 5 6 7 8 9 10 11 12 13 14 15 16 17 18 19 20 21 22 23 24 25 26 27 28 29 30 31 32 33 34
778
FTUS46 KMTR 202320
TAFOAK
TAF
KOAK 202320Z 2100/2206 26015KT P6SM VCSH SCT030 BKN050
     FM210400 24008KT P6SM VCSH SCT030 SCT050 BKN100
     FM210900 20005KT P6SM SCT030 BKN050
     FM211500 16004KT P6SM SCT030 SCT050
     FM212100 26007KT P6SM FEW030 FEW050 SCT200
     FM220400 22005KT P6SM SCT200=

USA.gov is the U.S. government's official web portal to all federal, state and local government web resources and services.